Time;durP1;ratioP1;P1;durP2;ratioP2;P2;SDS_P1;SDS_P2;PMS_P1;PMS_P2;Temp;Humidity;BMP_temperature;BMP_pressure;BME280_temperature;BME280_humidity;BME280_pressure;Samples;Min_cycle;Max_cycle;Signal;HPM_P1;HPM_P2
2020/12/17 00:01:11;;;;;;;22.70;14.90;;;;;;;6.64;95.73;95749.38;5057650;28;20799;-80
2020/12/17 00:03:38;;;;;;;29.90;17.77;;;;;;;6.55;96.45;95744.69;5059718;28;20434;-79
2020/12/17 00:06:05;;;;;;;29.53;17.70;;;;;;;6.57;96.34;95736.78;5060500;28;20492;-81
2020/12/17 00:08:31;;;;;;;31.87;16.93;;;;;;;6.60;96.73;95742.66;5056700;28;20481;-82
2020/12/17 00:10:58;;;;;;;24.20;16.43;;;;;;;6.55;96.55;95733.41;5062522;28;20467;-79
2020/12/17 00:13:24;;;;;;;27.20;15.80;;;;;;;6.52;96.82;95731.81;5056059;28;20436;-80
2020/12/17 00:15:50;;;;;;;33.57;17.17;;;;;;;6.43;97.02;95727.13;5057660;28;20440;-81
2020/12/17 00:18:17;;;;;;;30.07;17.53;;;;;;;6.46;97.40;95729.56;5057536;28;20449;-82
2020/12/17 00:20:43;;;;;;;33.67;18.30;;;;;;;6.44;97.79;95734.84;5054721;28;20433;-81
2020/12/17 00:23:10;;;;;;;30.20;18.90;;;;;;;6.44;98.29;95734.00;5053743;28;20489;-81
2020/12/17 00:25:36;;;;;;;41.87;21.93;;;;;;;6.36;98.05;95736.19;5053756;28;20441;-81
2020/12/17 00:28:03;;;;;;;37.50;21.80;;;;;;;6.34;98.00;95740.63;5053200;28;20445;-82
2020/12/17 00:30:29;;;;;;;34.40;19.57;;;;;;;6.30;98.24;95732.16;5053485;28;20498;-82
2020/12/17 00:32:56;;;;;;;32.23;22.50;;;;;;;6.32;98.94;95742.50;5053120;28;20452;-82
2020/12/17 00:35:22;;;;;;;31.77;20.30;;;;;;;6.30;98.95;95736.53;5053300;28;20867;-82
2020/12/17 00:37:48;;;;;;;27.90;16.57;;;;;;;6.33;98.62;95739.78;5053370;28;20442;-82
2020/12/17 00:40:16;;;;;;;23.27;14.83;;;;;;;6.32;99.23;95737.28;5053178;28;20449;-82
2020/12/17 00:42:44;;;;;;;28.65;17.77;;;;;;;6.41;99.62;95739.41;5033555;28;20916;-82
2020/12/17 00:45:12;;;;;;;33.23;19.10;;;;;;;6.49;98.56;95740.66;5053126;28;20677;-82
2020/12/17 00:47:39;;;;;;;25.13;16.43;;;;;;;6.52;97.80;95737.03;5052934;28;20500;-82
2020/12/17 00:50:06;;;;;;;27.00;14.87;;;;;;;6.37;97.63;95737.88;5053434;28;20481;-81
2020/12/17 00:52:35;;;;;;;26.70;16.07;;;;;;;6.39;99.01;95742.09;5051828;28;20499;-82
2020/12/17 00:55:02;;;;;;;26.13;14.97;;;;;;;6.16;98.83;95739.88;5017589;28;20442;-82
2020/12/17 00:57:29;;;;;;;25.80;14.90;;;;;;;6.13;99.63;95742.66;5052983;28;20510;-81
2020/12/17 00:59:56;;;;;;;24.47;14.50;;;;;;;6.16;99.32;95743.34;5052569;28;20451;-82
2020/12/17 01:02:22;;;;;;;22.20;13.43;;;;;;;6.20;99.61;95739.63;5052792;28;20460;-82
2020/12/17 01:04:49;;;;;;;22.70;12.77;;;;;;;6.25;99.74;95734.16;5052651;28;20507;-82
2020/12/17 01:07:16;;;;;;;18.87;14.60;;;;;;;6.06;99.87;95726.50;5053141;28;20449;-82
2020/12/17 01:09:42;;;;;;;24.30;14.43;;;;;;;6.18;99.96;95738.88;5052431;28;20526;-82
2020/12/17 01:12:09;;;;;;;19.73;14.93;;;;;;;6.25;99.96;95733.31;5052699;28;20502;-82
2020/12/17 01:14:36;;;;;;;18.67;12.20;;;;;;;6.29;99.44;95725.25;5052812;28;20836;-82
2020/12/17 01:17:05;;;;;;;22.60;14.30;;;;;;;6.34;98.63;95733.66;5052814;28;20551;-82
2020/12/17 01:19:32;;;;;;;30.47;19.23;;;;;;;6.41;98.84;95728.97;5059078;28;20454;-82
2020/12/17 01:21:58;;;;;;;29.43;16.27;;;;;;;6.49;98.86;95734.59;5059819;28;20442;-82
2020/12/17 01:24:25;;;;;;;31.80;19.40;;;;;;;6.57;98.63;95731.56;5053582;28;20839;-82
2020/12/17 01:26:53;;;;;;;30.70;18.03;;;;;;;6.63;98.29;95733.81;5052806;28;20453;-82
2020/12/17 01:29:19;;;;;;;28.43;15.70;;;;;;;6.69;97.36;95733.50;5052195;28;20524;-82
2020/12/17 01:31:47;;;;;;;44.13;16.00;;;;;;;6.74;97.37;95737.53;5052553;28;20438;-81
2020/12/17 01:34:13;;;;;;;26.20;14.80;;;;;;;6.77;96.98;95726.06;5052328;28;20552;-82
2020/12/17 01:36:39;;;;;;;28.53;17.40;;;;;;;6.76;96.30;95722.63;5052048;28;20445;-82
2020/12/17 01:39:06;;;;;;;25.63;16.23;;;;;;;6.77;96.09;95731.28;5052354;28;20445;-81
2020/12/17 01:41:32;;;;;;;24.10;16.43;;;;;;;6.78;95.84;95731.19;5052187;28;20445;-82
2020/12/17 01:44:01;;;;;;;25.27;15.60;;;;;;;6.82;95.83;95742.31;5052367;28;20956;-81
2020/12/17 01:46:28;;;;;;;29.60;14.57;;;;;;;6.84;96.27;95736.06;5052200;28;20472;-81
2020/12/17 01:48:56;;;;;;;33.80;16.00;;;;;;;6.86;95.97;95735.13;5052130;28;21008;-82
2020/12/17 01:51:23;;;;;;;28.90;15.13;;;;;;;6.89;95.09;95729.75;5052658;28;20445;-82
2020/12/17 01:53:53;;;;;;;25.17;14.70;;;;;;;6.89;94.41;95727.13;5052185;28;20453;-82
2020/12/17 01:56:23;;;;;;;19.60;13.00;;;;;;;6.91;94.43;95720.06;5052358;28;20510;-81
2020/12/17 01:58:56;;;;;;;24.10;14.33;;;;;;;6.88;94.21;95723.69;5052154;28;20430;-82
2020/12/17 02:01:26;;;;;;;21.60;13.70;;;;;;;6.88;94.08;95723.69;5052105;28;20437;-82
2020/12/17 02:03:55;;;;;;;32.30;14.40;;;;;;;6.86;94.11;95724.69;5054520;28;20517;-82
2020/12/17 02:06:22;;;;;;;21.40;13.63;;;;;;;6.86;94.00;95720.31;5056306;28;20442;-82
2020/12/17 02:08:51;;;;;;;25.93;14.47;;;;;;;6.88;94.21;95722.84;5055851;28;20486;-82
2020/12/17 02:11:18;;;;;;;23.63;14.87;;;;;;;6.89;93.44;95719.31;5056191;28;20453;-82
2020/12/17 02:13:46;;;;;;;26.50;14.13;;;;;;;6.88;93.32;95720.25;5056008;28;20456;-82
2020/12/17 02:16:14;;;;;;;21.30;12.47;;;;;;;6.87;93.65;95718.56;5055669;28;20444;-82
2020/12/17 02:18:41;;;;;;;23.13;13.63;;;;;;;6.83;93.26;95726.56;5055552;28;20445;-81
2020/12/17 02:21:07;;;;;;;21.80;13.30;;;;;;;6.82;93.69;95724.88;5055543;28;20453;-81
2020/12/17 02:23:35;;;;;;;22.90;13.63;;;;;;;6.84;93.48;95727.41;5055505;28;20484;-81
2020/12/17 02:26:02;;;;;;;20.47;13.30;;;;;;;6.84;93.48;95719.56;5056197;28;20449;-81
2020/12/17 02:28:29;;;;;;;21.20;13.43;;;;;;;6.86;93.61;95720.31;5055579;28;20480;-81
2020/12/17 02:30:55;;;;;;;21.80;14.10;;;;;;;6.90;93.70;95718.38;5055477;28;20456;-82
2020/12/17 02:33:22;;;;;;;21.33;12.80;;;;;;;6.91;93.70;95720.06;5055539;28;20472;-81
2020/12/17 02:35:48;;;;;;;16.70;12.27;;;;;;;6.94;93.53;95714.66;5055207;28;20807;-82
2020/12/17 02:38:14;;;;;;;21.53;13.20;;;;;;;6.95;93.36;95718.97;5055405;28;20453;-82
2020/12/17 02:40:41;;;;;;;21.10;12.50;;;;;;;6.94;92.94;95704.22;5055509;28;20453;-81
2020/12/17 02:43:10;;;;;;;16.53;11.73;;;;;;;6.93;93.26;95703.38;5055562;28;20636;-81
2020/12/17 02:45:42;;;;;;;16.40;11.20;;;;;;;6.94;93.20;95701.63;5055350;28;20445;-81
2020/12/17 02:48:08;;;;;;;23.20;12.00;;;;;;;6.95;93.48;95698.13;5055331;28;20433;-81
2020/12/17 02:50:34;;;;;;;20.83;12.90;;;;;;;6.97;93.30;95697.09;5055075;28;20454;-81
2020/12/17 02:53:01;;;;;;;25.43;12.37;;;;;;;7.01;93.70;95702.97;5055075;28;20456;-81
2020/12/17 02:55:27;;;;;;;15.27;10.07;;;;;;;7.05;93.41;95707.06;5054922;28;20449;-81
2020/12/17 02:57:54;;;;;;;18.40;11.97;;;;;;;7.05;93.17;95707.06;5054834;28;20457;-81
2020/12/17 03:00:21;;;;;;;16.53;11.90;;;;;;;7.08;93.07;95704.28;5055106;28;20449;-81
2020/12/17 03:02:47;;;;;;;17.07;11.13;;;;;;;7.11;92.46;95704.09;5054738;28;20450;-81
2020/12/17 03:05:14;;;;;;;18.17;11.30;;;;;;;7.10;92.43;95707.66;5055162;28;20437;-81
2020/12/17 03:07:40;;;;;;;17.07;10.43;;;;;;;7.08;92.63;95706.91;5055159;28;20453;-81
2020/12/17 03:10:12;;;;;;;19.73;11.70;;;;;;;7.06;93.07;95708.75;5054741;28;20473;-81
2020/12/17 03:12:38;;;;;;;18.40;11.43;;;;;;;7.07;92.75;95713.03;5054823;28;20438;-81
2020/12/17 03:15:05;;;;;;;16.13;11.50;;;;;;;7.08;92.26;95714.72;5053708;28;20502;-81
2020/12/17 03:17:32;;;;;;;15.50;10.80;;;;;;;7.07;92.11;95720.88;5019454;28;20441;-82
2020/12/17 03:19:58;;;;;;;17.07;11.37;;;;;;;7.10;92.13;95734.59;5035839;28;20434;-81
2020/12/17 03:22:25;;;;;;;21.60;11.33;;;;;;;7.13;92.21;95725.72;5054407;28;20551;-81
2020/12/17 03:24:51;;;;;;;16.73;10.23;;;;;;;7.13;92.12;95721.34;5054706;28;20452;-81
2020/12/17 03:27:18;;;;;;;17.13;11.97;;;;;;;7.15;92.25;95729.09;5054732;28;20524;-81
2020/12/17 03:29:44;;;;;;;15.00;10.47;;;;;;;7.13;91.97;95717.91;5054603;28;20545;-81
2020/12/17 03:32:10;;;;;;;20.30;11.87;;;;;;;7.12;91.62;95718.84;5054660;28;20508;-82
2020/12/17 03:34:37;;;;;;;19.73;13.60;;;;;;;7.08;91.65;95715.56;5054404;28;20437;-81
2020/12/17 03:37:04;;;;;;;18.00;11.23;;;;;;;7.05;91.48;95720.97;5054662;28;20462;-82
2020/12/17 03:39:30;;;;;;;21.73;12.70;;;;;;;7.07;92.20;95724.31;5054405;28;20441;-81
2020/12/17 03:41:57;;;;;;;17.57;13.10;;;;;;;7.09;92.51;95722.47;5054461;28;20468;-82
2020/12/17 03:44:23;;;;;;;23.70;12.90;;;;;;;7.12;91.62;95721.44;5054327;28;20533;-82
2020/12/17 03:46:49;;;;;;;23.70;13.80;;;;;;;7.12;92.08;95729.28;5054280;28;20457;-81
2020/12/17 03:49:16;;;;;;;22.57;13.13;;;;;;;7.13;92.12;95725.72;5054239;28;20488;-80
2020/12/17 03:51:43;;;;;;;17.03;11.77;;;;;;;7.12;91.90;95724.06;5053991;28;20445;-81
2020/12/17 03:54:09;;;;;;;20.80;13.40;;;;;;;7.20;91.99;95732.28;5018975;28;21023;-81
2020/12/17 03:56:36;;;;;;;22.33;14.97;;;;;;;7.21;92.18;95730.50;5054071;28;20446;-81
2020/12/17 03:59:02;;;;;;;19.30;14.40;;;;;;;7.24;91.24;95731.19;5053810;28;20476;-81
2020/12/17 04:01:29;;;;;;;20.53;13.70;;;;;;;7.23;92.15;95734.72;5053785;28;20452;-82
2020/12/17 04:03:56;;;;;;;25.20;15.40;;;;;;;7.27;91.60;95735.38;5054264;28;20803;-81
2020/12/17 04:06:22;;;;;;;26.83;17.27;;;;;;;7.27;91.75;95738.84;5053516;28;20441;-82
2020/12/17 04:08:49;;;;;;;21.93;15.00;;;;;;;7.21;91.66;95738.34;5053733;28;20494;-82
2020/12/17 04:11:16;;;;;;;21.73;13.80;;;;;;;7.08;91.56;95736.44;5053688;28;20460;-82
2020/12/17 04:13:42;;;;;;;24.80;15.93;;;;;;;6.96;92.50;95731.09;5019850;28;20440;-81
2020/12/17 04:16:09;;;;;;;27.70;17.40;;;;;;;6.77;93.94;95726.06;5061143;28;20819;-81
2020/12/17 04:18:35;;;;;;;26.67;16.90;;;;;;;6.75;94.36;95733.16;5055872;28;20804;-81
2020/12/17 04:21:02;;;;;;;24.60;16.17;;;;;;;6.72;94.88;95728.94;5053890;28;20445;-82
2020/12/17 04:23:28;;;;;;;27.33;15.97;;;;;;;6.75;95.24;95722.72;5053669;28;20473;-81
2020/12/17 04:25:56;;;;;;;35.50;16.47;;;;;;;6.76;95.20;95730.44;5053435;28;20792;-81
2020/12/17 04:28:22;;;;;;;25.00;16.90;;;;;;;6.75;95.76;95718.34;5053032;28;20949;-81
2020/12/17 04:30:48;;;;;;;33.07;16.67;;;;;;;6.73;95.97;95722.81;5053771;28;20438;-81
2020/12/17 04:33:15;;;;;;;26.03;15.53;;;;;;;6.71;96.28;95727.25;5053202;28;20450;-82
2020/12/17 04:35:41;;;;;;;31.07;18.70;;;;;;;6.74;96.29;95726.25;5053299;28;20441;-82
2020/12/17 04:38:07;;;;;;;30.23;16.83;;;;;;;6.71;96.26;95727.25;5053111;28;20449;-82
2020/12/17 04:40:34;;;;;;;33.40;19.03;;;;;;;6.71;97.07;95724.66;5052897;28;20825;-82
2020/12/17 04:43:02;;;;;;;28.70;16.50;;;;;;;6.71;96.69;95726.44;5052856;28;20811;-80
2020/12/17 04:45:29;;;;;;;26.90;16.90;;;;;;;6.64;97.46;95725.06;5053063;28;20445;-81
2020/12/17 04:47:58;;;;;;;27.00;17.00;;;;;;;6.55;97.76;95729.03;5053114;28;20449;-81
2020/12/17 04:50:26;;;;;;;28.40;16.27;;;;;;;6.50;97.88;95718.03;5052655;28;20834;-82
2020/12/17 04:52:53;;;;;;;32.53;18.13;;;;;;;6.58;97.57;95723.66;5053092;28;20441;-82
2020/12/17 04:55:24;;;;;;;27.90;16.20;;;;;;;6.55;97.96;95723.81;5053083;28;20953;-82
2020/12/17 04:57:53;;;;;;;35.03;17.80;;;;;;;6.64;97.96;95725.91;5053101;28;20484;-82
2020/12/17 05:00:20;;;;;;;32.43;18.43;;;;;;;6.69;97.89;95723.91;5053055;28;20795;-82
2020/12/17 05:02:48;;;;;;;30.90;17.93;;;;;;;6.75;97.77;95723.56;5033727;28;20433;-81
2020/12/17 05:05:14;;;;;;;29.97;18.20;;;;;;;6.79;97.15;95735.50;5052847;28;20957;-81
2020/12/17 05:07:41;;;;;;;30.30;17.90;;;;;;;6.84;96.53;95727.41;5052599;28;20446;-81
2020/12/17 05:10:08;;;;;;;29.20;16.53;;;;;;;6.83;96.45;95726.56;5052233;28;20997;-81
2020/12/17 05:12:35;;;;;;;33.07;19.13;;;;;;;6.88;96.72;95733.28;5052849;28;20908;-80
2020/12/17 05:15:01;;;;;;;38.00;20.63;;;;;;;6.93;96.42;95737.31;5052874;28;20449;-84
2020/12/17 05:17:29;;;;;;;34.37;18.37;;;;;;;7.00;97.34;95736.06;5052478;28;20926;-84
2020/12/17 05:19:56;;;;;;;31.30;18.60;;;;;;;7.12;96.28;95737.09;5052424;28;20449;-81
2020/12/17 05:22:23;;;;;;;33.53;17.93;;;;;;;7.16;94.69;95736.00;5053059;28;20462;-86
2020/12/17 05:24:49;;;;;;;29.87;16.90;;;;;;;7.19;94.57;95727.13;5052791;28;20486;-82
2020/12/17 05:27:16;;;;;;;34.20;18.40;;;;;;;7.13;94.99;95733.56;5052248;28;20949;-81
2020/12/17 05:29:43;;;;;;;26.63;16.60;;;;;;;7.17;94.67;95734.22;5052452;28;20486;-81
2020/12/17 05:32:11;;;;;;;34.23;17.47;;;;;;;7.17;94.07;95729.84;5052651;28;20452;-80
2020/12/17 05:34:39;;;;;;;29.27;17.33;;;;;;;7.19;94.05;95730.59;5052691;28;20954;-81
2020/12/17 05:37:07;;;;;;;30.17;16.47;;;;;;;7.18;93.79;95723.69;5051968;28;20451;-80
2020/12/17 05:39:34;;;;;;;34.70;18.70;;;;;;;7.20;93.87;95737.50;5052097;28;20429;-82
2020/12/17 05:42:01;;;;;;;33.50;16.50;;;;;;;7.23;93.40;95746.91;5017139;28;20441;-83
2020/12/17 05:44:29;;;;;;;27.53;16.50;;;;;;;7.26;93.56;95750.22;5052296;28;20446;-82
2020/12/17 05:46:56;;;;;;;32.90;16.60;;;;;;;7.26;93.05;95747.59;5033374;28;20434;-87
2020/12/17 05:49:24;;;;;;;54.57;27.27;;;;;;;10.42;100.00;95738.59;5054304;28;20490;-91
2020/12/17 05:52:11;;;;;;;28.53;17.67;;;;;;;11.56;85.32;95739.84;5054420;28;21023;-84
2020/12/17 05:54:40;;;;;;;24.30;15.53;;;;;;;11.26;77.93;95747.38;5052297;28;20452;-80
2020/12/17 05:57:07;;;;;;;23.27;16.20;;;;;;;10.84;75.92;95760.09;5052304;28;20477;-81
2020/12/17 05:59:34;;;;;;;27.17;16.60;;;;;;;10.44;76.59;95755.06;5052044;28;20452;-81
2020/12/17 06:02:22;;;;;;;27.73;16.07;;;;;;;9.97;78.25;95762.72;5052662;28;20448;-82
2020/12/17 06:05:01;;;;;;;29.23;15.70;;;;;;;9.57;80.32;95765.41;5052451;28;20476;-82
2020/12/17 06:07:33;;;;;;;30.07;17.10;;;;;;;9.25;81.56;95760.53;5052614;28;20828;-83
2020/12/17 06:10:06;;;;;;;28.63;16.77;;;;;;;8.90;82.93;95770.66;5052703;28;20513;-83
2020/12/17 06:12:34;;;;;;;32.20;17.07;;;;;;;8.66;84.63;95765.19;5048456;28;20463;-82
2020/12/17 06:15:03;;;;;;;34.10;18.47;;;;;;;8.47;85.62;95766.47;5031640;28;20452;-82
2020/12/17 06:17:37;;;;;;;31.50;17.37;;;;;;;8.34;86.79;95776.84;5032511;28;20469;-80
2020/12/17 06:20:05;;;;;;;38.80;19.50;;;;;;;8.19;87.79;95768.13;5012815;28;20441;-82
2020/12/17 06:22:34;;;;;;;35.83;20.40;;;;;;;8.08;88.50;95776.63;5015670;28;20453;-81
2020/12/17 06:25:01;;;;;;;32.53;17.57;;;;;;;7.92;89.86;95770.66;5029113;28;20439;-81
2020/12/17 06:27:31;;;;;;;27.07;17.27;;;;;;;7.80;90.01;95766.16;5033473;28;20446;-81
2020/12/17 06:30:05;;;;;;;32.30;18.10;;;;;;;7.73;90.28;95767.44;5036021;28;20548;-81
2020/12/17 06:32:34;;;;;;;31.20;18.60;;;;;;;7.65;91.20;95778.38;5033061;28;20457;-81
2020/12/17 06:35:03;;;;;;;29.00;20.03;;;;;;;7.62;91.73;95777.72;5032999;28;20452;-83
2020/12/17 06:37:30;;;;;;;37.23;21.27;;;;;;;7.54;92.73;95777.31;5033064;28;20512;-82
2020/12/17 06:39:58;;;;;;;43.03;26.90;;;;;;;7.42;93.04;95766.66;5033469;28;20458;-82
2020/12/17 06:42:35;;;;;;;45.60;28.37;;;;;;;7.30;93.44;95772.59;4998128;28;20446;-83
2020/12/17 06:45:03;;;;;;;46.83;26.20;;;;;;;7.29;94.42;95772.69;5035006;28;20447;-85
2020/12/17 06:47:30;;;;;;;61.07;35.60;;;;;;;7.29;94.80;95783.13;5033429;28;20453;-82
2020/12/17 06:50:21;;;;;;;43.20;24.43;;;;;;;7.25;95.04;95779.84;5033760;28;20485;-86
2020/12/17 06:53:08;;;;;;;56.77;25.27;;;;;;;7.21;95.31;95775.72;5001517;28;20957;-82
2020/12/17 06:55:46;;;;;;;35.23;21.30;;;;;;;7.14;95.82;95777.84;5036437;28;20438;-83
2020/12/17 06:58:23;;;;;;;38.00;22.03;;;;;;;7.27;97.41;95766.72;5036241;28;20450;-83
2020/12/17 07:00:53;;;;;;;36.15;21.58;;;;;;;7.33;97.41;95772.41;5036131;28;20511;-84
2020/12/17 07:03:42;;;;;;;33.20;19.27;;;;;;;7.42;97.11;95771.03;5035510;28;20283;-82
2020/12/17 07:06:16;;;;;;;32.27;18.93;;;;;;;7.39;97.12;95772.06;5002641;28;20733;-82
2020/12/17 07:08:42;;;;;;;33.13;17.27;;;;;;;7.46;96.32;95773.38;5046413;28;20442;-82
2020/12/17 07:11:41;;;;;;;37.90;20.20;;;;;;;7.47;95.60;95774.22;5040461;28;20450;-84
2020/12/17 07:14:09;;;;;;;33.73;18.40;;;;;;;7.51;95.16;95780.94;5037010;28;20461;-84
2020/12/17 07:16:37;;;;;;;25.10;15.33;;;;;;;7.57;94.08;95779.75;5036791;28;20821;-82
2020/12/17 07:19:20;;;;;;;29.07;17.10;;;;;;;7.63;93.63;95785.44;5036010;28;20455;-83
2020/12/17 07:21:53;;;;;;;31.97;18.20;;;;;;;7.65;93.32;95780.13;5037103;28;20453;-83
2020/12/17 07:24:28;;;;;;;32.53;19.33;;;;;;;7.61;92.85;95778.63;5001923;28;20512;-81
2020/12/17 07:27:04;;;;;;;24.40;15.47;;;;;;;7.61;92.45;95786.47;5035892;28;20430;-81
2020/12/17 07:29:45;;;;;;;24.40;15.90;;;;;;;7.61;91.83;95776.88;5036107;28;20482;-80
2020/12/17 07:32:29;;;;;;;25.70;17.47;;;;;;;7.61;92.42;95781.25;5035057;28;20434;-81
2020/12/17 07:34:57;;;;;;;27.10;17.03;;;;;;;7.67;92.58;95786.09;5035366;28;20896;-80
2020/12/17 07:37:37;;;;;;;31.57;17.93;;;;;;;7.68;92.17;95799.06;5035247;28;20937;-79
2020/12/17 07:40:30;;;;;;;19.37;13.57;;;;;;;7.69;92.08;95784.25;5039564;28;20463;-84
2020/12/17 07:43:03;;;;;;;24.13;15.60;;;;;;;7.75;91.77;95781.25;5035474;28;20538;-85
2020/12/17 07:45:41;;;;;;;28.60;15.43;;;;;;;7.78;91.60;95794.13;5035613;28;20454;-84
2020/12/17 07:48:33;;;;;;;21.33;14.00;;;;;;;7.80;91.29;95787.06;5034903;28;20486;-80
2020/12/17 07:51:00;;;;;;;27.20;14.30;;;;;;;7.81;91.43;95796.59;5038104;28;20451;-80
2020/12/17 07:53:27;;;;;;;18.70;12.63;;;;;;;7.85;91.30;95792.88;5034547;28;20459;-83
2020/12/17 07:55:54;;;;;;;21.90;13.13;;;;;;;7.89;90.72;95791.75;5034802;28;20435;-81
2020/12/17 07:58:22;;;;;;;18.83;13.07;;;;;;;7.89;90.54;95796.13;5034752;28;20462;-82
2020/12/17 08:00:48;;;;;;;20.70;13.50;;;;;;;7.92;90.06;95791.56;5032578;28;20533;-79
2020/12/17 08:03:18;;;;;;;24.37;13.77;;;;;;;7.90;89.82;95798.66;5005339;28;20856;-79
2020/12/17 08:05:45;;;;;;;22.60;14.27;;;;;;;7.88;90.28;95803.13;5026394;28;20803;-79
2020/12/17 08:08:14;;;;;;;18.73;12.17;;;;;;;7.85;90.19;95795.47;5033765;28;20830;-78
2020/12/17 08:10:41;;;;;;;16.53;10.83;;;;;;;7.86;89.99;95807.59;5033815;28;20564;-78
2020/12/17 08:13:07;;;;;;;19.90;13.13;;;;;;;7.89;90.17;95814.44;5033689;28;20448;-79
2020/12/17 08:15:34;;;;;;;21.57;13.80;;;;;;;7.92;90.14;95815.09;5033702;28;20456;-79
2020/12/17 08:18:02;;;;;;;37.90;19.30;;;;;;;7.91;90.14;95815.19;5033822;28;20967;-78
2020/12/17 08:20:29;;;;;;;22.23;12.90;;;;;;;7.93;90.33;95813.31;4999530;28;20534;-79
2020/12/17 08:22:55;;;;;;;24.43;14.67;;;;;;;7.97;90.33;95815.63;5033614;28;20479;-79
2020/12/17 08:25:23;;;;;;;23.40;14.40;;;;;;;8.00;90.70;95809.38;5031328;28;20447;-78
2020/12/17 08:27:51;;;;;;;26.43;18.60;;;;;;;8.02;90.17;95805.75;5030778;28;20443;-78
2020/12/17 08:30:18;;;;;;;37.07;20.47;;;;;;;8.08;90.02;95814.97;5033059;28;21000;-78
2020/12/17 08:32:49;;;;;;;24.17;16.87;;;;;;;8.11;89.10;95808.75;5032522;28;20473;-78
2020/12/17 08:35:23;;;;;;;23.77;15.80;;;;;;;8.11;89.00;95809.59;5033318;28;20820;-78
2020/12/17 08:37:53;;;;;;;114.77;57.97;;;;;;;8.07;89.59;95811.53;5032752;28;21005;-78
2020/12/17 08:40:23;;;;;;;146.97;86.00;;;;;;;8.02;89.34;95810.97;5033840;28;20446;-79
2020/12/17 08:42:55;;;;;;;64.33;38.23;;;;;;;8.06;89.64;95815.09;5033684;28;20774;-79
2020/12/17 08:45:25;;;;;;;36.93;20.77;;;;;;;8.07;89.39;95816.75;5034905;28;20459;-79
2020/12/17 08:47:58;;;;;;;33.47;20.97;;;;;;;8.11;89.32;95811.38;5033333;28;20466;-79
2020/12/17 08:50:26;;;;;;;36.23;20.30;;;;;;;8.16;89.88;95818.00;5036367;28;20464;-81
2020/12/17 08:52:53;;;;;;;29.17;20.00;;;;;;;8.15;88.82;95812.88;5033164;28;20511;-79
2020/12/17 08:55:19;;;;;;;40.20;24.17;;;;;;;8.15;89.47;95811.09;5033107;28;20946;-79
2020/12/17 08:57:47;;;;;;;26.67;17.83;;;;;;;8.20;89.54;95806.41;5033295;28;20452;-78
2020/12/17 09:00:16;;;;;;;30.37;18.90;;;;;;;8.21;89.56;95802.88;5033778;28;20466;-79
2020/12/17 09:02:42;;;;;;;28.63;16.07;;;;;;;8.21;90.09;95800.25;5033160;28;20534;-79
2020/12/17 09:05:13;;;;;;;26.87;15.33;;;;;;;8.23;90.24;95792.31;5033135;28;20958;-79
2020/12/17 09:07:46;;;;;;;27.57;16.13;;;;;;;8.27;89.68;95797.25;5034048;28;20447;-80
2020/12/17 09:10:14;;;;;;;25.33;15.00;;;;;;;8.28;89.68;95795.50;5033903;28;20489;-80
2020/12/17 09:12:40;;;;;;;28.13;15.70;;;;;;;8.24;89.60;95792.22;5032168;28;20455;-79
2020/12/17 09:15:08;;;;;;;32.03;16.77;;;;;;;8.23;90.06;95789.72;5033098;28;20873;-77
2020/12/17 09:17:34;;;;;;;34.17;17.93;;;;;;;8.25;90.74;95783.44;5032679;28;20463;-78
2020/12/17 09:20:14;;;;;;;38.70;20.80;;;;;;;8.25;90.99;95786.06;5033286;28;20461;-79
2020/12/17 09:22:41;;;;;;;42.77;19.20;;;;;;;8.27;90.41;95786.81;5032844;28;20507;-79
2020/12/17 09:25:07;;;;;;;49.40;22.97;;;;;;;8.26;90.69;95784.28;5032807;28;20462;-80
2020/12/17 09:27:35;;;;;;;38.27;19.87;;;;;;;8.32;90.77;95779.50;5032900;28;20452;-80
2020/12/17 09:30:06;;;;;;;40.50;20.67;;;;;;;8.37;90.88;95784.47;5032853;28;20480;-80
2020/12/17 09:32:34;;;;;;;67.30;30.33;;;;;;;8.38;90.45;95773.09;5032526;28;20890;-82
2020/12/17 09:35:01;;;;;;;49.93;25.00;;;;;;;8.44;90.12;95779.75;5032658;28;20591;-80
2020/12/17 09:37:28;;;;;;;47.57;23.47;;;;;;;8.51;90.76;95783.66;5032529;28;20439;-80
2020/12/17 09:39:55;;;;;;;43.50;21.90;;;;;;;8.51;91.15;95781.88;5032682;28;20459;-80
2020/12/17 09:42:23;;;;;;;47.00;22.87;;;;;;;8.49;91.07;95778.50;5032764;28;20443;-80
2020/12/17 09:44:50;;;;;;;46.10;21.00;;;;;;;8.52;90.26;95774.84;5032226;28;20451;-80
2020/12/17 09:47:30;;;;;;;43.00;21.03;;;;;;;8.59;90.38;95777.00;5013558;28;20438;-81
2020/12/17 09:50:07;;;;;;;47.37;24.07;;;;;;;8.67;89.64;95779.97;5032707;28;20524;-80
2020/12/17 09:52:34;;;;;;;51.80;21.97;;;;;;;8.69;88.78;95782.50;5032532;28;20861;-79
2020/12/17 09:55:01;;;;;;;40.70;23.57;;;;;;;8.77;88.83;95784.63;5032769;28;20456;-79
2020/12/17 09:57:36;;;;;;;44.17;21.37;;;;;;;8.80;88.80;95780.03;5032090;28;20860;-80
2020/12/17 10:00:04;;;;;;;37.87;19.00;;;;;;;8.79;87.81;95774.91;5032617;28;20444;-79
2020/12/17 10:02:30;;;;;;;45.27;21.40;;;;;;;8.80;88.16;95780.03;5032063;28;20864;-80
2020/12/17 10:04:57;;;;;;;37.77;20.57;;;;;;;8.86;88.95;95779.63;5031885;28;20452;-80
2020/12/17 10:07:23;;;;;;;30.87;18.80;;;;;;;8.87;88.22;95772.63;5032373;28;20461;-80
2020/12/17 10:09:50;;;;;;;30.77;18.67;;;;;;;8.90;88.08;95775.03;5032134;28;20487;-80
2020/12/17 10:12:17;;;;;;;36.90;20.07;;;;;;;8.92;87.92;95774.00;5037656;28;20444;-79
2020/12/17 10:14:43;;;;;;;41.53;21.33;;;;;;;8.95;87.30;95770.34;5038041;28;20526;-78
2020/12/17 10:17:10;;;;;;;40.77;21.60;;;;;;;8.95;87.66;95778.19;5032697;28;20434;-81
2020/12/17 10:19:36;;;;;;;60.63;31.17;;;;;;;8.95;87.79;95772.97;5032369;28;20442;-81
2020/12/17 10:22:03;;;;;;;45.57;23.13;;;;;;;8.95;87.87;95762.50;5031928;28;20586;-81
2020/12/17 10:24:29;;;;;;;43.37;20.60;;;;;;;8.99;87.41;95764.00;5033155;28;20803;-80
2020/12/17 10:26:55;;;;;;;42.00;24.90;;;;;;;8.99;88.05;95764.84;5035472;28;20444;-79
2020/12/17 10:29:23;;;;;;;55.53;26.30;;;;;;;9.00;88.09;95763.06;5036096;28;20479;-81
2020/12/17 10:31:49;;;;;;;55.77;27.47;;;;;;;9.05;87.51;95760.97;5035949;28;20445;-81
2020/12/17 10:34:17;;;;;;;79.13;33.30;;;;;;;9.04;87.41;95751.44;5035601;28;20463;-81
2020/12/17 10:36:44;;;;;;;63.97;27.13;;;;;;;9.02;87.05;95753.34;5035356;28;20940;-79
2020/12/17 10:39:12;;;;;;;134.83;56.53;;;;;;;8.97;87.56;95756.25;5000967;28;20447;-80
2020/12/17 10:41:39;;;;;;;52.63;26.70;;;;;;;8.98;87.96;95757.09;5035884;28;20437;-81
2020/12/17 10:44:06;;;;;;;45.90;24.10;;;;;;;8.99;88.32;95758.78;5035886;28;20470;-81
2020/12/17 10:46:35;;;;;;;50.90;24.80;;;;;;;8.95;88.56;95758.09;5035559;28;20455;-81
2020/12/17 10:49:02;;;;;;;55.50;25.77;;;;;;;8.95;88.28;95749.41;5035428;28;20493;-81
2020/12/17 10:51:29;;;;;;;54.80;27.90;;;;;;;8.99;88.50;95748.31;5035471;28;20820;-80
2020/12/17 10:53:56;;;;;;;54.37;27.93;;;;;;;8.96;88.61;95735.38;5035475;28;20467;-80
2020/12/17 10:56:22;;;;;;;60.33;26.47;;;;;;;8.90;88.78;95743.63;5033247;28;20451;-80
2020/12/17 10:58:50;;;;;;;49.20;27.60;;;;;;;8.87;89.37;95743.84;5034300;28;20446;-80
2020/12/17 11:01:20;;;;;;;75.17;41.13;;;;;;;8.90;89.83;95733.16;5035452;28;20449;-81
2020/12/17 11:03:47;;;;;;;55.93;29.73;;;;;;;8.94;89.88;95739.88;5035430;28;20539;-81
2020/12/17 11:06:15;;;;;;;61.83;29.60;;;;;;;8.99;90.13;95737.84;5033064;28;20448;-80
2020/12/17 11:08:42;;;;;;;57.93;32.10;;;;;;;9.00;89.80;95732.50;5035266;28;20441;-79
2020/12/17 11:11:08;;;;;;;63.27;30.37;;;;;;;9.03;89.13;95734.06;5034988;28;20484;-85
2020/12/17 11:13:35;;;;;;;43.90;25.70;;;;;;;9.01;88.47;95733.34;5032987;28;20444;-79
2020/12/17 11:16:01;;;;;;;62.97;27.60;;;;;;;8.94;89.51;95727.63;5034619;28;20458;-79
2020/12/17 11:18:27;;;;;;;64.57;33.63;;;;;;;8.99;89.29;95725.56;5034747;28;20463;-80
2020/12/17 11:20:55;;;;;;;59.07;32.83;;;;;;;9.06;90.37;95730.41;5034350;28;20456;-88
2020/12/17 11:23:21;;;;;;;55.35;30.48;;;;;;;9.16;89.47;95723.63;5034134;28;20456;-80
2020/12/17 11:25:47;;;;;;;54.13;28.67;;;;;;;9.22;88.62;95728.44;5034613;28;20467;-80
2020/12/17 11:28:14;;;;;;;59.70;33.30;;;;;;;9.27;88.93;95729.84;5034270;28;20927;-80
2020/12/17 11:30:40;;;;;;;63.10;32.47;;;;;;;9.31;88.20;95733.94;5034067;28;20538;-80